sensor_id;sensor_type;location;lat;lon;timestamp;temperature;humidity
18882;DHT22;9573;50.948;11.600;2022-12-10T05:22:40;1.10;99.90
18882;DHT22;9573;50.948;11.600;2022-12-10T05:25:24;1.00;99.90
18882;DHT22;9573;50.948;11.600;2022-12-10T05:27:51;1.10;99.90
18882;DHT22;9573;50.948;11.600;2022-12-10T05:30:18;1.20;99.90
18882;DHT22;9573;50.948;11.600;2022-12-10T05:32:45;1.30;99.90
18882;DHT22;9573;50.948;11.600;2022-12-10T05:35:13;1.40;99.90
18882;DHT22;9573;50.948;11.600;2022-12-10T05:37:41;1.50;99.90
18882;DHT22;9573;50.948;11.600;2022-12-10T05:40:09;1.60;99.90
18882;DHT22;9573;50.948;11.600;2022-12-10T05:42:37;1.70;99.90
18882;DHT22;9573;50.948;11.600;2022-12-10T05:45:05;1.70;99.90
18882;DHT22;9573;50.948;11.600;2022-12-10T05:47:33;1.70;99.90
18882;DHT22;9573;50.948;11.600;2022-12-10T05:50:00;1.70;99.90
18882;DHT22;9573;50.948;11.600;2022-12-10T05:52:27;1.80;99.90
18882;DHT22;9573;50.948;11.600;2022-12-10T05:54:56;1.80;99.90
18882;DHT22;9573;50.948;11.600;2022-12-10T05:57:25;1.80;99.90
18882;DHT22;9573;50.948;11.600;2022-12-10T05:59:52;1.80;99.90
18882;DHT22;9573;50.948;11.600;2022-12-10T06:02:19;1.80;99.90
18882;DHT22;9573;50.948;11.600;2022-12-10T06:04:46;1.80;99.90
18882;DHT22;9573;50.948;11.600;2022-12-10T06:07:13;1.80;99.90
18882;DHT22;9573;50.948;11.600;2022-12-10T06:09:42;1.80;99.90
18882;DHT22;9573;50.948;11.600;2022-12-10T06:12:11;1.80;99.90
18882;DHT22;9573;50.948;11.600;2022-12-10T06:14:38;1.80;99.90
18882;DHT22;9573;50.948;11.600;2022-12-10T06:17:05;1.80;99.90
18882;DHT22;9573;50.948;11.600;2022-12-10T06:19:32;1.80;99.90
18882;DHT22;9573;50.948;11.600;2022-12-10T06:22:03;1.80;99.90
18882;DHT22;9573;50.948;11.600;2022-12-10T06:24:30;1.80;99.90
18882;DHT22;9573;50.948;11.600;2022-12-10T06:26:57;1.80;99.90
18882;DHT22;9573;50.948;11.600;2022-12-10T06:29:25;1.80;99.90
18882;DHT22;9573;50.948;11.600;2022-12-10T06:31:52;1.90;99.90
18882;DHT22;9573;50.948;11.600;2022-12-10T06:34:19;1.80;99.90
18882;DHT22;9573;50.948;11.600;2022-12-10T06:36:46;1.80;99.90
18882;DHT22;9573;50.948;11.600;2022-12-10T06:39:14;1.70;99.90
18882;DHT22;9573;50.948;11.600;2022-12-10T06:41:41;1.70;99.90
18882;DHT22;9573;50.948;11.600;2022-12-10T06:44:10;1.70;99.90
18882;DHT22;9573;50.948;11.600;2022-12-10T06:46:39;1.70;99.90
18882;DHT22;9573;50.948;11.600;2022-12-10T06:49:07;1.70;99.90
18882;DHT22;9573;50.948;11.600;2022-12-10T06:51:34;1.70;99.90
18882;DHT22;9573;50.948;11.600;2022-12-10T06:54:04;1.70;99.90
18882;DHT22;9573;50.948;11.600;2022-12-10T06:56:31;1.70;99.90
18882;DHT22;9573;50.948;11.600;2022-12-10T06:58:58;1.70;99.90
18882;DHT22;9573;50.948;11.600;2022-12-10T07:01:31;1.70;99.90
18882;DHT22;9573;50.948;11.600;2022-12-10T07:04:00;1.70;99.90
18882;DHT22;9573;50.948;11.600;2022-12-10T07:06:30;1.70;99.90
18882;DHT22;9573;50.948;11.600;2022-12-10T07:08:58;1.70;99.90
18882;DHT22;9573;50.948;11.600;2022-12-10T07:11:25;1.70;99.90
18882;DHT22;9573;50.948;11.600;2022-12-10T07:13:52;1.70;99.90
18882;DHT22;9573;50.948;11.600;2022-12-10T07:16:24;1.70;99.90
18882;DHT22;9573;50.948;11.600;2022-12-10T07:18:58;1.70;99.90
18882;DHT22;9573;50.948;11.600;2022-12-10T07:21:29;1.70;99.90
18882;DHT22;9573;50.948;11.600;2022-12-10T07:24:00;1.80;99.90
18882;DHT22;9573;50.948;11.600;2022-12-10T07:26:30;1.80;99.90
18882;DHT22;9573;50.948;11.600;2022-12-10T07:28:59;1.80;99.90
18882;DHT22;9573;50.948;11.600;2022-12-10T07:31:26;1.80;99.90
18882;DHT22;9573;50.948;11.600;2022-12-10T07:33:54;1.90;99.90
18882;DHT22;9573;50.948;11.600;2022-12-10T07:36:25;1.80;99.90
18882;DHT22;9573;50.948;11.600;2022-12-10T07:38:55;1.80;99.90
18882;DHT22;9573;50.948;11.600;2022-12-10T07:41:23;1.90;99.90
18882;DHT22;9573;50.948;11.600;2022-12-10T07:43:50;1.90;99.90
18882;DHT22;9573;50.948;11.600;2022-12-10T07:46:20;1.90;99.90
18882;DHT22;9573;50.948;11.600;2022-12-10T07:48:49;1.90;99.90
18882;DHT22;9573;50.948;11.600;2022-12-10T07:51:19;1.90;99.90
18882;DHT22;9573;50.948;11.600;2022-12-10T07:53:51;1.90;99.90
18882;DHT22;9573;50.948;11.600;2022-12-10T07:56:19;1.90;99.90
18882;DHT22;9573;50.948;11.600;2022-12-10T07:58:48;1.90;99.90
18882;DHT22;9573;50.948;11.600;2022-12-10T08:01:17;1.80;99.90
18882;DHT22;9573;50.948;11.600;2022-12-10T08:03:48;1.90;99.90
18882;DHT22;9573;50.948;11.600;2022-12-10T08:06:17;1.90;99.90
18882;DHT22;9573;50.948;11.600;2022-12-10T08:08:49;1.80;99.90
18882;DHT22;9573;50.948;11.600;2022-12-10T08:11:17;1.80;99.90
18882;DHT22;9573;50.948;11.600;2022-12-10T08:13:46;1.90;99.90
18882;DHT22;9573;50.948;11.600;2022-12-10T08:16:17;1.90;99.90
18882;DHT22;9573;50.948;11.600;2022-12-10T08:18:45;1.90;99.90
18882;DHT22;9573;50.948;11.600;2022-12-10T08:21:14;1.90;99.90
18882;DHT22;9573;50.948;11.600;2022-12-10T08:23:45;2.00;99.90
18882;DHT22;9573;50.948;11.600;2022-12-10T08:26:16;2.00;99.90
18882;DHT22;9573;50.948;11.600;2022-12-10T08:28:44;2.00;99.90
18882;DHT22;9573;50.948;11.600;2022-12-10T08:31:13;2.00;99.90
18882;DHT22;9573;50.948;11.600;2022-12-10T08:33:42;2.00;99.90
18882;DHT22;9573;50.948;11.600;2022-12-10T08:36:11;2.00;99.90
18882;DHT22;9573;50.948;11.600;2022-12-10T08:38:39;2.10;99.90
18882;DHT22;9573;50.948;11.600;2022-12-10T08:41:08;2.00;99.90
18882;DHT22;9573;50.948;11.600;2022-12-10T08:43:37;2.00;99.90
18882;DHT22;9573;50.948;11.600;2022-12-10T08:46:08;1.90;99.90
18882;DHT22;9573;50.948;11.600;2022-12-10T08:48:36;1.90;99.90
18882;DHT22;9573;50.948;11.600;2022-12-10T08:51:08;1.90;99.90
18882;DHT22;9573;50.948;11.600;2022-12-10T08:53:36;1.90;99.90
18882;DHT22;9573;50.948;11.600;2022-12-10T08:56:03;1.90;99.90
18882;DHT22;9573;50.948;11.600;2022-12-10T08:58:33;1.90;99.90
18882;DHT22;9573;50.948;11.600;2022-12-10T09:01:06;1.90;99.90
18882;DHT22;9573;50.948;11.600;2022-12-10T09:03:34;1.90;99.90
18882;DHT22;9573;50.948;11.600;2022-12-10T09:06:07;1.90;99.90
18882;DHT22;9573;50.948;11.600;2022-12-10T09:08:36;1.80;99.90
18882;DHT22;9573;50.948;11.600;2022-12-10T09:11:08;1.80;99.90
18882;DHT22;9573;50.948;11.600;2022-12-10T09:13:38;1.90;99.90
18882;DHT22;9573;50.948;11.600;2022-12-10T09:16:08;1.90;99.90
18882;DHT22;9573;50.948;11.600;2022-12-10T09:18:36;1.80;99.90
18882;DHT22;9573;50.948;11.600;2022-12-10T09:21:08;1.90;99.90
18882;DHT22;9573;50.948;11.600;2022-12-10T09:23:38;1.80;99.90
18882;DHT22;9573;50.948;11.600;2022-12-10T09:26:09;1.90;99.90
18882;DHT22;9573;50.948;11.600;2022-12-10T09:28:37;1.80;99.90
18882;DHT22;9573;50.948;11.600;2022-12-10T09:31:06;2.40;99.90
18882;DHT22;9573;50.948;11.600;2022-12-10T09:33:36;1.90;99.90
18882;DHT22;9573;50.948;11.600;2022-12-10T09:36:04;1.90;99.90
18882;DHT22;9573;50.948;11.600;2022-12-10T09:38:35;2.00;99.90
18882;DHT22;9573;50.948;11.600;2022-12-10T09:41:10;2.00;99.90
18882;DHT22;9573;50.948;11.600;2022-12-10T09:44:03;2.10;99.90
18882;DHT22;9573;50.948;11.600;2022-12-10T09:46:43;2.10;99.90
18882;DHT22;9573;50.948;11.600;2022-12-10T09:49:21;2.20;99.90
18882;DHT22;9573;50.948;11.600;2022-12-10T09:51:55;2.20;99.90
18882;DHT22;9573;50.948;11.600;2022-12-10T09:54:29;2.20;99.90
18882;DHT22;9573;50.948;11.600;2022-12-10T09:56:59;2.20;99.90
18882;DHT22;9573;50.948;11.600;2022-12-10T09:59:30;2.30;99.90
18882;DHT22;9573;50.948;11.600;2022-12-10T10:02:10;2.30;99.90
18882;DHT22;9573;50.948;11.600;2022-12-10T10:04:46;2.30;99.90
18882;DHT22;9573;50.948;11.600;2022-12-10T10:07:19;2.30;99.90
18882;DHT22;9573;50.948;11.600;2022-12-10T10:09:48;2.30;99.90
18882;DHT22;9573;50.948;11.600;2022-12-10T10:12:16;2.20;99.90
18882;DHT22;9573;50.948;11.600;2022-12-10T10:14:45;2.10;99.90
18882;DHT22;9573;50.948;11.600;2022-12-10T10:17:23;2.10;99.90
18882;DHT22;9573;50.948;11.600;2022-12-10T10:19:55;2.10;99.90
18882;DHT22;9573;50.948;11.600;2022-12-10T10:22:24;2.10;99.90
18882;DHT22;9573;50.948;11.600;2022-12-10T10:24:56;2.10;99.90
18882;DHT22;9573;50.948;11.600;2022-12-10T10:27:31;2.10;99.90
18882;DHT22;9573;50.948;11.600;2022-12-10T10:30:03;2.10;99.90
18882;DHT22;9573;50.948;11.600;2022-12-10T10:32:47;2.10;99.90
18882;DHT22;9573;50.948;11.600;2022-12-10T10:35:28;2.10;99.90
18882;DHT22;9573;50.948;11.600;2022-12-10T10:38:01;2.10;99.90
18882;DHT22;9573;50.948;11.600;2022-12-10T10:40:32;2.20;99.90
18882;DHT22;9573;50.948;11.600;2022-12-10T10:43:03;3.20;99.90
18882;DHT22;9573;50.948;11.600;2022-12-10T10:45:38;2.20;99.90
18882;DHT22;9573;50.948;11.600;2022-12-10T10:48:15;2.80;99.90
18882;DHT22;9573;50.948;11.600;2022-12-10T10:50:44;2.10;99.90
18882;DHT22;9573;50.948;11.600;2022-12-10T10:53:28;2.10;99.90
18882;DHT22;9573;50.948;11.600;2022-12-10T10:56:05;2.10;99.90
18882;DHT22;9573;50.948;11.600;2022-12-10T10:58:34;2.20;99.90
18882;DHT22;9573;50.948;11.600;2022-12-10T11:01:10;2.20;99.90
18882;DHT22;9573;50.948;11.600;2022-12-10T11:03:50;1.00;99.90
18882;DHT22;9573;50.948;11.600;2022-12-10T11:06:30;2.20;99.90
18882;DHT22;9573;50.948;11.600;2022-12-10T11:08:58;2.30;99.90
18882;DHT22;9573;50.948;11.600;2022-12-10T11:11:40;2.80;99.90
18882;DHT22;9573;50.948;11.600;2022-12-10T11:14:25;2.40;99.90
18882;DHT22;9573;50.948;11.600;2022-12-10T11:17:00;3.90;99.90
18882;DHT22;9573;50.948;11.600;2022-12-10T11:19:54;2.70;99.90
18882;DHT22;9573;50.948;11.600;2022-12-10T11:22:29;2.70;99.90
18882;DHT22;9573;50.948;11.600;2022-12-10T11:25:00;2.90;99.90
18882;DHT22;9573;50.948;11.600;2022-12-10T11:27:44;3.00;99.90
18882;DHT22;9573;50.948;11.600;2022-12-10T11:30:18;3.00;99.90
18882;DHT22;9573;50.948;11.600;2022-12-10T11:33:09;3.00;99.90
18882;DHT22;9573;50.948;11.600;2022-12-10T11:35:52;2.90;99.90
18882;DHT22;9573;50.948;11.600;2022-12-10T11:38:30;2.90;99.90
18882;DHT22;9573;50.948;11.600;2022-12-10T11:41:10;2.80;99.90
18882;DHT22;9573;50.948;11.600;2022-12-10T11:43:57;2.60;99.90
18882;DHT22;9573;50.948;11.600;2022-12-10T11:46:52;2.40;99.90
18882;DHT22;9573;50.948;11.600;2022-12-10T11:49:32;2.30;99.90
18882;DHT22;9573;50.948;11.600;2022-12-10T11:52:14;2.10;99.90
18882;DHT22;9573;50.948;11.600;2022-12-10T11:55:00;2.10;99.90
18882;DHT22;9573;50.948;11.600;2022-12-10T11:57:38;2.20;99.90
18882;DHT22;9573;50.948;11.600;2022-12-10T12:00:24;2.30;99.90
18882;DHT22;9573;50.948;11.600;2022-12-10T12:03:19;1.50;99.90
18882;DHT22;9573;50.948;11.600;2022-12-10T12:06:05;2.50;99.90
18882;DHT22;9573;50.948;11.600;2022-12-10T12:08:55;1.80;99.90
18882;DHT22;9573;50.948;11.600;2022-12-10T12:11:43;2.40;99.90
18882;DHT22;9573;50.948;11.600;2022-12-10T12:14:20;2.50;99.90
18882;DHT22;9573;50.948;11.600;2022-12-10T12:17:00;2.30;99.90
18882;DHT22;9573;50.948;11.600;2022-12-10T12:19:36;2.20;99.90
18882;DHT22;9573;50.948;11.600;2022-12-10T12:22:14;2.10;99.90
18882;DHT22;9573;50.948;11.600;2022-12-10T12:24:53;2.70;99.90
18882;DHT22;9573;50.948;11.600;2022-12-10T12:27:28;2.00;99.90
18882;DHT22;9573;50.948;11.600;2022-12-10T12:30:05;2.00;99.90
18882;DHT22;9573;50.948;11.600;2022-12-10T12:32:49;2.60;99.90
18882;DHT22;9573;50.948;11.600;2022-12-10T12:35:26;2.00;99.90
18882;DHT22;9573;50.948;11.600;2022-12-10T12:38:01;2.00;99.90
18882;DHT22;9573;50.948;11.600;2022-12-10T12:40:39;2.80;99.90
18882;DHT22;9573;50.948;11.600;2022-12-10T12:43:21;2.00;99.90
18882;DHT22;9573;50.948;11.600;2022-12-10T12:45:55;2.00;99.90
18882;DHT22;9573;50.948;11.600;2022-12-10T12:48:31;2.00;99.90
18882;DHT22;9573;50.948;11.600;2022-12-10T12:51:05;2.00;99.90
18882;DHT22;9573;50.948;11.600;2022-12-10T12:53:34;2.00;99.90
18882;DHT22;9573;50.948;11.600;2022-12-10T12:56:09;2.00;99.90
18882;DHT22;9573;50.948;11.600;2022-12-10T12:58:51;2.00;99.90
18882;DHT22;9573;50.948;11.600;2022-12-10T13:01:31;2.10;99.90
18882;DHT22;9573;50.948;11.600;2022-12-10T13:04:01;2.50;99.90
18882;DHT22;9573;50.948;11.600;2022-12-10T13:06:34;2.20;99.90
18882;DHT22;9573;50.948;11.600;2022-12-10T13:09:25;2.10;99.90
18882;DHT22;9573;50.948;11.600;2022-12-10T13:12:27;2.10;99.90
18882;DHT22;9573;50.948;11.600;2022-12-10T13:15:03;2.10;99.90
18882;DHT22;9573;50.948;11.600;2022-12-10T13:20:50;2.10;99.90
18882;DHT22;9573;50.948;11.600;2022-12-10T13:23:34;2.20;99.90
18882;DHT22;9573;50.948;11.600;2022-12-10T13:26:24;2.10;99.90
18882;DHT22;9573;50.948;11.600;2022-12-10T13:28:55;2.20;99.90
18882;DHT22;9573;50.948;11.600;2022-12-10T13:31:37;2.20;99.90
18882;DHT22;9573;50.948;11.600;2022-12-10T13:34:19;2.10;99.90
18882;DHT22;9573;50.948;11.600;2022-12-10T13:37:30;2.00;99.90
18882;DHT22;9573;50.948;11.600;2022-12-10T13:40:13;2.10;99.90
18882;DHT22;9573;50.948;11.600;2022-12-10T13:42:43;2.10;99.90
18882;DHT22;9573;50.948;11.600;2022-12-10T13:45:33;2.10;99.90
18882;DHT22;9573;50.948;11.600;2022-12-10T13:48:28;2.10;99.90
18882;DHT22;9573;50.948;11.600;2022-12-10T13:51:18;2.10;99.90
18882;DHT22;9573;50.948;11.600;2022-12-10T13:54:06;2.10;99.90
18882;DHT22;9573;50.948;11.600;2022-12-10T13:56:44;2.10;99.90
18882;DHT22;9573;50.948;11.600;2022-12-10T13:59:23;2.10;99.90
18882;DHT22;9573;50.948;11.600;2022-12-10T14:02:12;2.20;99.90
18882;DHT22;9573;50.948;11.600;2022-12-10T14:07:56;2.00;99.90
18882;DHT22;9573;50.948;11.600;2022-12-10T14:10:31;1.90;99.90
18882;DHT22;9573;50.948;11.600;2022-12-10T14:13:02;1.90;99.90
18882;DHT22;9573;50.948;11.600;2022-12-10T14:15:31;1.90;99.90
18882;DHT22;9573;50.948;11.600;2022-12-10T14:18:09;2.00;99.90
18882;DHT22;9573;50.948;11.600;2022-12-10T14:20:43;2.00;99.90
18882;DHT22;9573;50.948;11.600;2022-12-10T14:23:23;2.00;99.90
18882;DHT22;9573;50.948;11.600;2022-12-10T14:26:06;1.90;99.90
18882;DHT22;9573;50.948;11.600;2022-12-10T14:28:41;1.90;99.90
18882;DHT22;9573;50.948;11.600;2022-12-10T14:31:15;1.80;99.90
18882;DHT22;9573;50.948;11.600;2022-12-10T14:33:46;1.80;99.90
18882;DHT22;9573;50.948;11.600;2022-12-10T14:36:20;1.80;99.90
18882;DHT22;9573;50.948;11.600;2022-12-10T14:38:52;1.80;99.90
18882;DHT22;9573;50.948;11.600;2022-12-10T14:41:21;2.00;99.90
18882;DHT22;9573;50.948;11.600;2022-12-10T14:43:50;1.80;99.90
18882;DHT22;9573;50.948;11.600;2022-12-10T14:46:20;1.80;99.90
18882;DHT22;9573;50.948;11.600;2022-12-10T14:48:52;1.80;99.90
18882;DHT22;9573;50.948;11.600;2022-12-10T14:51:21;1.80;99.90
18882;DHT22;9573;50.948;11.600;2022-12-10T14:53:52;1.70;99.90
18882;DHT22;9573;50.948;11.600;2022-12-10T14:56:24;1.70;99.90
18882;DHT22;9573;50.948;11.600;2022-12-10T14:58:57;1.60;99.90
18882;DHT22;9573;50.948;11.600;2022-12-10T15:01:32;1.70;99.90
18882;DHT22;9573;50.948;11.600;2022-12-10T15:04:05;1.70;99.90
18882;DHT22;9573;50.948;11.600;2022-12-10T15:06:35;1.60;99.90
18882;DHT22;9573;50.948;11.600;2022-12-10T15:09:03;1.70;99.90
18882;DHT22;9573;50.948;11.600;2022-12-10T15:11:32;1.60;99.90
18882;DHT22;9573;50.948;11.600;2022-12-10T15:14:01;1.70;99.90
18882;DHT22;9573;50.948;11.600;2022-12-10T15:16:31;1.60;99.90
18882;DHT22;9573;50.948;11.600;2022-12-10T15:19:17;1.60;99.90
18882;DHT22;9573;50.948;11.600;2022-12-10T15:21:46;1.60;99.90
18882;DHT22;9573;50.948;11.600;2022-12-10T15:24:18;1.60;99.90
18882;DHT22;9573;50.948;11.600;2022-12-10T15:26:48;1.60;99.90
18882;DHT22;9573;50.948;11.600;2022-12-10T15:29:34;1.60;99.90
18882;DHT22;9573;50.948;11.600;2022-12-10T15:32:10;1.60;99.90
18882;DHT22;9573;50.948;11.600;2022-12-10T15:34:44;1.60;99.90
18882;DHT22;9573;50.948;11.600;2022-12-10T15:37:19;1.60;99.90
18882;DHT22;9573;50.948;11.600;2022-12-10T15:39:51;1.60;99.90
18882;DHT22;9573;50.948;11.600;2022-12-10T15:42:37;1.60;99.90
18882;DHT22;9573;50.948;11.600;2022-12-10T15:45:18;1.60;99.90
18882;DHT22;9573;50.948;11.600;2022-12-10T15:47:47;1.70;99.90
18882;DHT22;9573;50.948;11.600;2022-12-10T15:50:16;1.70;99.90
18882;DHT22;9573;50.948;11.600;2022-12-10T15:52:43;1.80;99.90
18882;DHT22;9573;50.948;11.600;2022-12-10T15:55:12;1.80;99.90
18882;DHT22;9573;50.948;11.600;2022-12-10T15:57:40;1.80;99.90
18882;DHT22;9573;50.948;11.600;2022-12-10T16:00:17;1.80;99.90
18882;DHT22;9573;50.948;11.600;2022-12-10T16:02:47;1.80;99.90
18882;DHT22;9573;50.948;11.600;2022-12-10T16:05:19;1.80;99.90
18882;DHT22;9573;50.948;11.600;2022-12-10T16:07:53;1.70;99.90
18882;DHT22;9573;50.948;11.600;2022-12-10T16:10:23;1.80;99.90
18882;DHT22;9573;50.948;11.600;2022-12-10T16:12:58;1.90;99.90
18882;DHT22;9573;50.948;11.600;2022-12-10T16:15:29;1.90;99.90
18882;DHT22;9573;50.948;11.600;2022-12-10T16:18:01;1.90;99.90
18882;DHT22;9573;50.948;11.600;2022-12-10T16:20:30;1.90;99.90
18882;DHT22;9573;50.948;11.600;2022-12-10T16:22:59;1.90;99.90
18882;DHT22;9573;50.948;11.600;2022-12-10T16:25:28;1.90;99.90
18882;DHT22;9573;50.948;11.600;2022-12-10T16:27:56;1.90;99.90
18882;DHT22;9573;50.948;11.600;2022-12-10T16:30:28;1.80;99.90
18882;DHT22;9573;50.948;11.600;2022-12-10T16:32:59;1.80;99.90
18882;DHT22;9573;50.948;11.600;2022-12-10T16:35:26;1.70;99.90
18882;DHT22;9573;50.948;11.600;2022-12-10T16:37:55;1.80;99.90
18882;DHT22;9573;50.948;11.600;2022-12-10T16:40:26;1.70;99.90
18882;DHT22;9573;50.948;11.600;2022-12-10T16:42:54;1.70;99.90
18882;DHT22;9573;50.948;11.600;2022-12-10T16:45:26;1.80;99.90
18882;DHT22;9573;50.948;11.600;2022-12-10T16:47:54;1.70;99.90
18882;DHT22;9573;50.948;11.600;2022-12-10T16:50:22;1.70;99.90
18882;DHT22;9573;50.948;11.600;2022-12-10T16:52:56;1.70;99.90
18882;DHT22;9573;50.948;11.600;2022-12-10T16:55:25;1.70;99.90
18882;DHT22;9573;50.948;11.600;2022-12-10T16:57:53;1.70;99.90
18882;DHT22;9573;50.948;11.600;2022-12-10T17:00:22;1.70;99.90
18882;DHT22;9573;50.948;11.600;2022-12-10T17:02:51;1.70;99.90
18882;DHT22;9573;50.948;11.600;2022-12-10T17:05:24;1.70;99.90
18882;DHT22;9573;50.948;11.600;2022-12-10T17:07:56;1.70;99.90
18882;DHT22;9573;50.948;11.600;2022-12-10T17:10:24;1.60;99.90
18882;DHT22;9573;50.948;11.600;2022-12-10T17:13:05;1.60;99.90
18882;DHT22;9573;50.948;11.600;2022-12-10T17:15:32;1.70;99.90
18882;DHT22;9573;50.948;11.600;2022-12-10T17:18:00;1.60;99.90
18882;DHT22;9573;50.948;11.600;2022-12-10T17:20:28;1.60;99.90
18882;DHT22;9573;50.948;11.600;2022-12-10T17:22:57;1.60;99.90
18882;DHT22;9573;50.948;11.600;2022-12-10T17:25:25;1.70;99.90
18882;DHT22;9573;50.948;11.600;2022-12-10T17:27:54;1.70;99.90
18882;DHT22;9573;50.948;11.600;2022-12-10T17:30:21;1.70;99.90
18882;DHT22;9573;50.948;11.600;2022-12-10T17:32:49;1.70;99.90
18882;DHT22;9573;50.948;11.600;2022-12-10T17:35:18;1.70;99.90
18882;DHT22;9573;50.948;11.600;2022-12-10T17:37:46;1.80;99.90
18882;DHT22;9573;50.948;11.600;2022-12-10T17:40:19;1.70;99.90
18882;DHT22;9573;50.948;11.600;2022-12-10T17:42:47;1.70;99.90
18882;DHT22;9573;50.948;11.600;2022-12-10T17:45:16;1.70;99.90
18882;DHT22;9573;50.948;11.600;2022-12-10T17:47:44;1.80;99.90
18882;DHT22;9573;50.948;11.600;2022-12-10T17:50:21;1.70;99.90
18882;DHT22;9573;50.948;11.600;2022-12-10T17:52:51;1.70;99.90
18882;DHT22;9573;50.948;11.600;2022-12-10T17:55:19;1.70;99.90
18882;DHT22;9573;50.948;11.600;2022-12-10T17:57:46;1.70;99.90
18882;DHT22;9573;50.948;11.600;2022-12-10T18:00:17;1.70;99.90
18882;DHT22;9573;50.948;11.600;2022-12-10T18:02:46;1.70;99.90
18882;DHT22;9573;50.948;11.600;2022-12-10T18:05:14;1.60;99.90
18882;DHT22;9573;50.948;11.600;2022-12-10T18:07:42;1.60;99.90
18882;DHT22;9573;50.948;11.600;2022-12-10T18:10:15;1.50;99.90
18882;DHT22;9573;50.948;11.600;2022-12-10T18:12:46;1.50;99.90
18882;DHT22;9573;50.948;11.600;2022-12-10T18:15:14;1.50;99.90
18882;DHT22;9573;50.948;11.600;2022-12-10T18:17:42;1.50;99.90
18882;DHT22;9573;50.948;11.600;2022-12-10T18:20:20;1.50;99.90
18882;DHT22;9573;50.948;11.600;2022-12-10T18:22:48;1.50;99.90
18882;DHT22;9573;50.948;11.600;2022-12-10T18:25:16;1.50;99.90
18882;DHT22;9573;50.948;11.600;2022-12-10T18:27:45;1.50;99.90
18882;DHT22;9573;50.948;11.600;2022-12-10T18:30:13;1.50;99.90
18882;DHT22;9573;50.948;11.600;2022-12-10T18:32:43;1.50;99.90
18882;DHT22;9573;50.948;11.600;2022-12-10T18:35:10;1.50;99.90
18882;DHT22;9573;50.948;11.600;2022-12-10T18:37:38;1.50;99.90
18882;DHT22;9573;50.948;11.600;2022-12-10T18:40:08;1.50;99.90
18882;DHT22;9573;50.948;11.600;2022-12-10T18:42:40;1.50;99.90
18882;DHT22;9573;50.948;11.600;2022-12-10T18:45:09;1.50;99.90
18882;DHT22;9573;50.948;11.600;2022-12-10T18:47:36;1.50;99.90
18882;DHT22;9573;50.948;11.600;2022-12-10T18:50:05;0.30;99.90
18882;DHT22;9573;50.948;11.600;2022-12-10T18:52:42;1.60;99.90
18882;DHT22;9573;50.948;11.600;2022-12-10T18:55:09;1.60;99.90
18882;DHT22;9573;50.948;11.600;2022-12-10T18:57:37;1.60;99.90
18882;DHT22;9573;50.948;11.600;2022-12-10T19:00:15;1.50;99.90
18882;DHT22;9573;50.948;11.600;2022-12-10T19:02:44;1.50;99.90
18882;DHT22;9573;50.948;11.600;2022-12-10T19:05:12;1.50;99.90
18882;DHT22;9573;50.948;11.600;2022-12-10T19:07:40;1.50;99.90
18882;DHT22;9573;50.948;11.600;2022-12-10T19:10:12;1.40;99.90
18882;DHT22;9573;50.948;11.600;2022-12-10T19:12:42;1.40;99.90
18882;DHT22;9573;50.948;11.600;2022-12-10T19:15:13;1.40;99.90
18882;DHT22;9573;50.948;11.600;2022-12-10T19:17:43;1.40;99.90
18882;DHT22;9573;50.948;11.600;2022-12-10T19:20:13;1.40;99.90
18882;DHT22;9573;50.948;11.600;2022-12-10T19:22:42;1.40;99.90
18882;DHT22;9573;50.948;11.600;2022-12-10T19:25:10;1.40;99.90
18882;DHT22;9573;50.948;11.600;2022-12-10T19:27:37;1.40;99.90
18882;DHT22;9573;50.948;11.600;2022-12-10T19:30:06;1.30;99.90
18882;DHT22;9573;50.948;11.600;2022-12-10T19:32:37;1.30;99.90
18882;DHT22;9573;50.948;11.600;2022-12-10T19:35:05;1.30;99.90
18882;DHT22;9573;50.948;11.600;2022-12-10T19:37:33;1.40;99.90
18882;DHT22;9573;50.948;11.600;2022-12-10T19:40:00;1.30;99.90
18882;DHT22;9573;50.948;11.600;2022-12-10T19:42:27;1.30;99.90
18882;DHT22;9573;50.948;11.600;2022-12-10T19:44:55;1.30;99.90
18882;DHT22;9573;50.948;11.600;2022-12-10T19:47:24;-0.20;99.90
18882;DHT22;9573;50.948;11.600;2022-12-10T19:49:53;1.30;99.90
18882;DHT22;9573;50.948;11.600;2022-12-10T19:52:20;1.20;99.90
18882;DHT22;9573;50.948;11.600;2022-12-10T19:54:47;1.20;99.90
18882;DHT22;9573;50.948;11.600;2022-12-10T19:57:14;1.20;99.90
18882;DHT22;9573;50.948;11.600;2022-12-10T19:59:42;1.10;99.90
18882;DHT22;9573;50.948;11.600;2022-12-10T20:02:09;1.20;99.90
18882;DHT22;9573;50.948;11.600;2022-12-10T20:04:36;1.10;99.90
18882;DHT22;9573;50.948;11.600;2022-12-10T20:07:05;1.20;99.90
18882;DHT22;9573;50.948;11.600;2022-12-10T20:09:32;1.20;99.90
18882;DHT22;9573;50.948;11.600;2022-12-10T20:11:59;1.20;99.90
18882;DHT22;9573;50.948;11.600;2022-12-10T20:14:26;0.60;99.90
18882;DHT22;9573;50.948;11.600;2022-12-10T20:16:53;1.20;99.90
18882;DHT22;9573;50.948;11.600;2022-12-10T20:19:22;1.10;99.90
18882;DHT22;9573;50.948;11.600;2022-12-10T20:21:49;1.10;99.90
18882;DHT22;9573;50.948;11.600;2022-12-10T20:24:19;1.10;99.90
18882;DHT22;9573;50.948;11.600;2022-12-10T20:26:47;1.10;99.90
18882;DHT22;9573;50.948;11.600;2022-12-10T20:29:16;1.00;99.90
18882;DHT22;9573;50.948;11.600;2022-12-10T20:31:45;1.00;99.90
18882;DHT22;9573;50.948;11.600;2022-12-10T20:34:13;1.00;99.90
18882;DHT22;9573;50.948;11.600;2022-12-10T20:36:41;1.00;99.90
18882;DHT22;9573;50.948;11.600;2022-12-10T20:39:14;1.00;99.90
18882;DHT22;9573;50.948;11.600;2022-12-10T20:41:45;1.00;99.90
18882;DHT22;9573;50.948;11.600;2022-12-10T20:44:13;1.00;99.90
18882;DHT22;9573;50.948;11.600;2022-12-10T20:46:40;1.00;99.90
18882;DHT22;9573;50.948;11.600;2022-12-10T20:49:08;1.00;99.90
18882;DHT22;9573;50.948;11.600;2022-12-10T20:51:36;1.00;99.90
18882;DHT22;9573;50.948;11.600;2022-12-10T20:54:03;1.00;99.90
18882;DHT22;9573;50.948;11.600;2022-12-10T20:56:31;0.90;99.90
18882;DHT22;9573;50.948;11.600;2022-12-10T20:58:59;1.00;99.90
